Terminal Aerodrome Forecast
Issued by NWS North Platte, NE

Home | Current Version | Previous Version | Graphics & Text | Print | Product List | Glossary On
Versions: 1 2 3 4 5 6 7 8 9 10 11 12 13 14 15 16
772
FTUS43 KLBF 201722
TAFVTN
TAF
KVTN 201722Z 2018/2118 VRB06KT P6SM FEW250
     FM201900 06006KT P6SM FEW250
     FM210400 12010KT P6SM FEW250
     FM210500 13010KT P6SM FEW250 WS015/17040KT
     FM210900 15010KT P6SM SCT250
     FM211400 20008KT P6SM FEW200
     FM211700 29010KT P6SM FEW200=

USA.gov is the U.S. government's official web portal to all federal, state and local government web resources and services.